createdAt,value
2022-11-18T00:01:23.988Z,99244.00
2022-11-18T00:03:52.861Z,99236.00
2022-11-18T00:06:23.699Z,99243.00
2022-11-18T00:08:52.155Z,99238.00
2022-11-18T00:11:41.854Z,99240.00
2022-11-18T00:14:27.729Z,99246.00
2022-11-18T00:17:02.056Z,99249.00
2022-11-18T00:19:30.893Z,99254.00
2022-11-18T00:21:58.412Z,99249.00
2022-11-18T00:24:26.246Z,99248.00
2022-11-18T00:26:54.329Z,99247.00
2022-11-18T00:29:22.550Z,99250.00
2022-11-18T00:31:50.142Z,99260.00
2022-11-18T00:34:19.319Z,99250.00
2022-11-18T00:36:48.264Z,99262.00
2022-11-18T00:39:19.514Z,99265.00
2022-11-18T00:42:08.913Z,99261.00
2022-11-18T00:44:37.296Z,99262.00
2022-11-18T00:47:04.743Z,99271.00
2022-11-18T00:49:32.233Z,99277.00
2022-11-18T00:51:59.323Z,99278.00
2022-11-18T00:54:26.399Z,99273.00
2022-11-18T00:56:53.629Z,99282.00
2022-11-18T00:59:21.027Z,99280.00
2022-11-18T01:01:49.328Z,99285.00
2022-11-18T01:04:17.236Z,99290.00
2022-11-18T01:06:44.616Z,99290.00
2022-11-18T01:09:11.898Z,99298.00
2022-11-18T01:11:57.470Z,99296.00
2022-11-18T01:14:26.345Z,99294.00
2022-11-18T01:16:57.950Z,99298.00
2022-11-18T01:19:26.281Z,99292.00
2022-11-18T01:21:54.027Z,99296.00
2022-11-18T01:24:21.107Z,99306.00
2022-11-18T01:26:48.533Z,99294.00
2022-11-18T01:29:16.133Z,99310.00
2022-11-18T01:32:01.843Z,99317.00
2022-11-18T01:34:31.041Z,99324.00
2022-11-18T01:36:58.882Z,99325.00
2022-11-18T01:39:26.343Z,99321.00
2022-11-18T01:41:53.521Z,99327.00
2022-11-18T01:44:58.194Z,99337.00
2022-11-18T01:47:34.796Z,99336.00
2022-11-18T01:50:03.295Z,99340.00
2022-11-18T01:52:34.217Z,99337.00
2022-11-18T01:55:12.901Z,99345.00
2022-11-18T01:57:41.977Z,99346.00
2022-11-18T02:00:10.344Z,99344.00
2022-11-18T02:02:38.842Z,99348.00
2022-11-18T02:05:11.301Z,99347.00
2022-11-18T02:07:43.308Z,99348.00
2022-11-18T02:10:25.243Z,99352.00
2022-11-18T02:12:54.971Z,99357.00
2022-11-18T02:15:40.068Z,99355.00
2022-11-18T02:18:36.479Z,99356.00
2022-11-18T02:21:56.671Z,99366.00
2022-11-18T02:24:35.829Z,99369.00
2022-11-18T02:27:35.490Z,99369.00
2022-11-18T02:30:09.861Z,99374.00
2022-11-18T02:33:10.331Z,99385.00
2022-11-18T02:35:43.327Z,99379.00
2022-11-18T02:38:18.098Z,99383.00
2022-11-18T02:41:09.332Z,99377.00
2022-11-18T02:43:54.326Z,99376.00
2022-11-18T02:46:33.833Z,99383.00
2022-11-18T02:49:07.858Z,99385.00
2022-11-18T02:51:37.048Z,99391.00
2022-11-18T02:54:08.802Z,99389.00
2022-11-18T02:56:37.292Z,99385.00
2022-11-18T02:59:05.650Z,99388.00
2022-11-18T03:01:36.113Z,99390.00
2022-11-18T03:04:04.047Z,99394.00
2022-11-18T03:06:38.321Z,99392.00
2022-11-18T03:09:20.427Z,99389.00
2022-11-18T03:12:07.092Z,99401.00
2022-11-18T03:15:09.159Z,99394.00
2022-11-18T03:17:55.039Z,99403.00
2022-11-18T03:20:38.818Z,99406.00
2022-11-18T03:23:13.495Z,99407.00
2022-11-18T03:26:05.038Z,99413.00
2022-11-18T03:28:55.290Z,99410.00
2022-11-18T03:31:32.009Z,99418.00
2022-11-18T03:34:30.063Z,99421.00
2022-11-18T03:37:19.953Z,99424.00
2022-11-18T03:40:04.902Z,99419.00
2022-11-18T03:46:43.556Z,99433.00
2022-11-18T03:49:20.107Z,99439.00
2022-11-18T03:52:01.742Z,99447.00
2022-11-18T03:54:35.469Z,99448.00
2022-11-18T03:57:12.659Z,99459.00
2022-11-18T03:59:57.461Z,99451.00
2022-11-18T04:02:31.313Z,99452.00
2022-11-18T04:05:04.932Z,99455.00
2022-11-18T04:07:55.557Z,99457.00
2022-11-18T04:10:35.895Z,99473.00
2022-11-18T04:13:39.003Z,99473.00
2022-11-18T04:16:09.936Z,99477.00
2022-11-18T04:18:37.043Z,99477.00
2022-11-18T04:21:04.492Z,99480.00
2022-11-18T04:23:31.622Z,99481.00
2022-11-18T04:25:58.797Z,99470.00
2022-11-18T04:28:25.859Z,99487.00
2022-11-18T04:30:52.946Z,99488.00
2022-11-18T04:33:20.055Z,99499.00
2022-11-18T04:35:47.716Z,99499.00
2022-11-18T04:38:20.623Z,99497.00
2022-11-18T04:40:49.241Z,99505.00
2022-11-18T04:43:16.456Z,99507.00
2022-11-18T04:45:43.617Z,99511.00
2022-11-18T04:48:10.908Z,99521.00
2022-11-18T04:50:38.019Z,99516.00
2022-11-18T04:53:05.181Z,99513.00
2022-11-18T04:55:32.229Z,99517.00
2022-11-18T04:57:59.460Z,99523.00
2022-11-18T05:00:26.597Z,99516.00
2022-11-18T05:02:53.903Z,99528.00
2022-11-18T05:05:21.055Z,99521.00
2022-11-18T05:07:48.414Z,99536.00
2022-11-18T05:10:15.725Z,99532.00
2022-11-18T05:12:48.947Z,99537.00
2022-11-18T05:15:18.578Z,99537.00
2022-11-18T05:17:46.530Z,99544.00
2022-11-18T05:20:14.331Z,99547.00
2022-11-18T05:22:41.783Z,99561.00
2022-11-18T05:25:09.772Z,99544.00
2022-11-18T05:27:37.023Z,99554.00
2022-11-18T05:30:05.763Z,99555.00
2022-11-18T05:32:32.831Z,99567.00
2022-11-18T05:34:59.916Z,99576.00
2022-11-18T05:37:27.052Z,99555.00
2022-11-18T05:39:54.193Z,99563.00
2022-11-18T05:42:40.018Z,99573.00
2022-11-18T05:45:10.069Z,99579.00
2022-11-18T05:47:57.241Z,99569.00
2022-11-18T05:50:24.438Z,99572.00
2022-11-18T05:52:51.567Z,99577.00
2022-11-18T05:55:22.519Z,99587.00
2022-11-18T05:57:50.164Z,99597.00
2022-11-18T06:00:18.401Z,99593.00
2022-11-18T06:02:50.183Z,99602.00
2022-11-18T06:05:21.706Z,99597.00
2022-11-18T06:07:49.124Z,99601.00
2022-11-18T06:10:30.222Z,99599.00
2022-11-18T06:13:05.170Z,99616.00
2022-11-18T06:15:40.169Z,99604.00
2022-11-18T06:18:32.856Z,99616.00
2022-11-18T06:21:04.795Z,99618.00
2022-11-18T06:23:38.075Z,99633.00
2022-11-18T06:26:05.525Z,99634.00
2022-11-18T06:28:32.926Z,99628.00
2022-11-18T06:31:00.000Z,99624.00
2022-11-18T06:33:27.246Z,99643.00
2022-11-18T06:35:54.477Z,99646.00
2022-11-18T06:38:25.368Z,99646.00
2022-11-18T06:40:53.237Z,99647.00
2022-11-18T06:43:41.474Z,99645.00
2022-11-18T06:46:39.812Z,99648.00
2022-11-18T06:49:07.126Z,99654.00
2022-11-18T06:51:34.255Z,99663.00
2022-11-18T06:54:06.045Z,99675.00
2022-11-18T06:56:36.826Z,99651.00
2022-11-18T06:59:04.886Z,99667.00
2022-11-18T07:01:36.926Z,99665.00
2022-11-18T07:04:04.924Z,99674.00
2022-11-18T07:06:36.216Z,99683.00
2022-11-18T07:09:07.117Z,99676.00
2022-11-18T07:12:30.677Z,99694.00
2022-11-18T07:15:00.043Z,99701.00
2022-11-18T07:17:29.859Z,99692.00
2022-11-18T07:20:01.140Z,99716.00
2022-11-18T07:22:29.201Z,99697.00
2022-11-18T07:24:56.799Z,99714.00
2022-11-18T07:27:34.670Z,99702.00
2022-11-18T07:30:06.164Z,99726.00
2022-11-18T07:32:41.864Z,99713.00
2022-11-18T07:35:15.119Z,99716.00
2022-11-18T07:37:42.217Z,99734.00
2022-11-18T07:40:12.623Z,99733.00
2022-11-18T07:42:43.860Z,99739.00
2022-11-18T07:45:12.763Z,99746.00
2022-11-18T07:47:41.757Z,99738.00
2022-11-18T07:50:12.260Z,99751.00
2022-11-18T07:52:43.150Z,99751.00
2022-11-18T07:55:14.891Z,99745.00
2022-11-18T07:57:44.049Z,99746.00
2022-11-18T08:00:12.231Z,99749.00
2022-11-18T08:02:39.822Z,99761.00
2022-11-18T08:05:17.557Z,99751.00
2022-11-18T08:07:46.218Z,99761.00
2022-11-18T08:10:13.863Z,99778.00
2022-11-18T08:12:46.640Z,99776.00
2022-11-18T08:15:22.148Z,99765.00
2022-11-18T08:17:54.521Z,99771.00
2022-11-18T08:20:27.978Z,99771.00
2022-11-18T08:23:04.436Z,99782.00
2022-11-18T08:25:34.130Z,99782.00
2022-11-18T08:28:02.339Z,99784.00
2022-11-18T08:30:52.474Z,99785.00
2022-11-18T08:33:27.690Z,99792.00
2022-11-18T08:36:03.198Z,99771.00
2022-11-18T08:38:42.382Z,99790.00
2022-11-18T08:41:32.455Z,99785.00
2022-11-18T08:44:01.348Z,99785.00
2022-11-18T08:46:32.111Z,99788.00
2022-11-18T08:49:00.600Z,99797.00
2022-11-18T08:51:30.873Z,99789.00
2022-11-18T08:54:01.522Z,99786.00
2022-11-18T08:56:28.783Z,99794.00
2022-11-18T08:58:56.959Z,99788.00
2022-11-18T09:01:31.413Z,99792.00
2022-11-18T09:03:59.926Z,99793.00
2022-11-18T09:06:41.243Z,99803.00
2022-11-18T09:09:09.821Z,99811.00
2022-11-18T09:11:39.930Z,99807.00
2022-11-18T09:15:06.173Z,99794.00
2022-11-18T09:16:55.586Z,99818.00
2022-11-18T09:22:10.898Z,99818.00
2022-11-18T09:24:40.347Z,99823.00
2022-11-18T09:27:17.256Z,99820.00
2022-11-18T09:29:45.641Z,99824.00
2022-11-18T09:32:13.820Z,99822.00
2022-11-18T09:34:41.593Z,99827.00
2022-11-18T09:37:09.073Z,99832.00
2022-11-18T09:39:37.765Z,99832.00
2022-11-18T09:42:41.408Z,99837.00
2022-11-18T09:45:28.799Z,99842.00
2022-11-18T09:48:18.634Z,99842.00
2022-11-18T09:50:50.746Z,99844.00
2022-11-18T09:53:22.672Z,99854.00
2022-11-18T09:55:52.386Z,99856.00
2022-11-18T09:58:35.309Z,99855.00
2022-11-18T10:01:37.319Z,99861.00
2022-11-18T10:04:05.223Z,99860.00
2022-11-18T10:06:37.731Z,99859.00
2022-11-18T10:09:30.385Z,99867.00
2022-11-18T10:12:38.153Z,99868.00
2022-11-18T10:15:51.648Z,99884.00
2022-11-18T10:19:00.744Z,99882.00
2022-11-18T10:22:24.339Z,99883.00
2022-11-18T10:25:11.230Z,99889.00
2022-11-18T10:27:54.565Z,99887.00
2022-11-18T10:30:35.886Z,99894.00
2022-11-18T10:33:34.468Z,99896.00
2022-11-18T10:36:49.243Z,99902.00
2022-11-18T10:39:31.171Z,99904.00
2022-11-18T10:42:24.841Z,99909.00
2022-11-18T10:45:31.759Z,99906.00
2022-11-18T10:48:20.265Z,99904.00
2022-11-18T10:51:03.418Z,99915.00
2022-11-18T10:53:48.204Z,99910.00
2022-11-18T10:56:28.668Z,99915.00
2022-11-18T10:59:09.868Z,99916.00
2022-11-18T11:01:52.219Z,99915.00
2022-11-18T11:04:25.451Z,99911.00
2022-11-18T11:06:53.036Z,99912.00
2022-11-18T11:09:30.499Z,99921.00
2022-11-18T11:12:17.945Z,99919.00
2022-11-18T11:15:14.024Z,99922.00
2022-11-18T11:18:19.130Z,99915.00
2022-11-18T11:20:46.535Z,99911.00
2022-11-18T11:23:22.017Z,99913.00
2022-11-18T11:29:09.724Z,99921.00
2022-11-18T11:32:11.151Z,99918.00
2022-11-18T11:35:12.868Z,99923.00
2022-11-18T11:37:56.158Z,99927.00
2022-11-18T11:40:52.390Z,99919.00
2022-11-18T11:44:26.409Z,99917.00
2022-11-18T11:47:40.278Z,99920.00
2022-11-18T11:50:13.083Z,99923.00
2022-11-18T11:53:24.418Z,99925.00
2022-11-18T11:56:23.012Z,99924.00
2022-11-18T11:59:20.580Z,99920.00
2022-11-18T12:02:15.028Z,99920.00
2022-11-18T12:05:25.278Z,99923.00
2022-11-18T12:08:05.111Z,99934.00
2022-11-18T12:11:34.698Z,99935.00
2022-11-18T12:14:45.731Z,99941.00
2022-11-18T12:18:16.439Z,99934.00
2022-11-18T12:20:48.085Z,99938.00
2022-11-18T12:23:26.581Z,99934.00
2022-11-18T12:25:55.308Z,99935.00
2022-11-18T12:28:45.278Z,99937.00
2022-11-18T12:31:18.621Z,99950.00
2022-11-18T12:34:00.206Z,99954.00
2022-11-18T12:36:40.380Z,99948.00
2022-11-18T12:39:25.590Z,99947.00
2022-11-18T12:42:23.066Z,99956.00
2022-11-18T12:44:53.277Z,99947.00
2022-11-18T12:47:42.137Z,99952.00
2022-11-18T12:50:15.294Z,99963.00
2022-11-18T12:52:42.429Z,99958.00
2022-11-18T12:55:30.481Z,99958.00
2022-11-18T12:57:57.644Z,99964.00
2022-11-18T13:00:24.882Z,99962.00
2022-11-18T13:03:01.854Z,99957.00
2022-11-18T13:05:35.219Z,99960.00
2022-11-18T13:08:18.309Z,99964.00
2022-11-18T13:11:15.914Z,99972.00
2022-11-18T13:13:44.162Z,99966.00
2022-11-18T13:16:56.114Z,99960.00
2022-11-18T13:19:25.191Z,99964.00
2022-11-18T13:22:19.594Z,99965.00
2022-11-18T13:24:53.039Z,99968.00
2022-11-18T13:27:58.027Z,99981.00
2022-11-18T13:30:26.256Z,99976.00
2022-11-18T13:32:58.649Z,99978.00
2022-11-18T13:35:29.323Z,99974.00
2022-11-18T13:38:10.009Z,99985.00
2022-11-18T13:41:13.846Z,99987.00
2022-11-18T13:43:42.797Z,99987.00
2022-11-18T13:46:23.270Z,99982.00
2022-11-18T13:48:57.695Z,99976.00
2022-11-18T13:51:27.598Z,99970.00
2022-11-18T13:54:02.894Z,99981.00
2022-11-18T13:56:35.247Z,99971.00
2022-11-18T13:59:21.108Z,99978.00
2022-11-18T14:01:56.382Z,99975.00
2022-11-18T14:04:33.050Z,99978.00
2022-11-18T14:07:31.943Z,99976.00
2022-11-18T14:10:10.846Z,99979.00
2022-11-18T14:12:45.716Z,99980.00
2022-11-18T14:15:44.696Z,99985.00
2022-11-18T14:18:33.090Z,99987.00
2022-11-18T14:21:03.558Z,100003.00
2022-11-18T14:23:43.494Z,100006.00
2022-11-18T14:26:10.993Z,100001.00
2022-11-18T14:28:39.308Z,100007.00
2022-11-18T14:31:31.774Z,100009.00
2022-11-18T14:34:27.429Z,100016.00
2022-11-18T14:36:57.020Z,100013.00
2022-11-18T14:39:29.507Z,100018.00
2022-11-18T14:41:58.768Z,100016.00
2022-11-18T14:44:30.225Z,100024.00
2022-11-18T14:47:25.465Z,100015.00
2022-11-18T14:49:52.772Z,100026.00
2022-11-18T14:52:24.282Z,100025.00
2022-11-18T14:54:54.154Z,100026.00
2022-11-18T14:57:21.789Z,100022.00
2022-11-18T14:59:49.050Z,100024.00
2022-11-18T15:02:22.759Z,100029.00
2022-11-18T15:04:51.155Z,100036.00
2022-11-18T15:07:23.921Z,100040.00
2022-11-18T15:10:05.048Z,100042.00
2022-11-18T15:12:34.011Z,100036.00
2022-11-18T15:15:01.538Z,100024.00
2022-11-18T15:17:31.043Z,100039.00
2022-11-18T15:19:58.739Z,100041.00
2022-11-18T15:22:25.971Z,100046.00
2022-11-18T15:24:54.806Z,100040.00
2022-11-18T15:27:23.415Z,100048.00
2022-11-18T15:29:50.578Z,100049.00
2022-11-18T15:32:17.966Z,100047.00
2022-11-18T15:34:45.144Z,100049.00
2022-11-18T15:37:13.584Z,100048.00
2022-11-18T15:39:41.075Z,100053.00
2022-11-18T15:42:09.196Z,100051.00
2022-11-18T15:44:36.531Z,100058.00
2022-11-18T15:47:04.435Z,100048.00
2022-11-18T15:49:35.321Z,100059.00
2022-11-18T15:52:02.557Z,100065.00
2022-11-18T15:54:29.814Z,100074.00
2022-11-18T15:56:57.183Z,100079.00
2022-11-18T15:59:24.269Z,100077.00
2022-11-18T16:01:54.372Z,100074.00
2022-11-18T16:04:23.498Z,100090.00
2022-11-18T16:06:51.889Z,100090.00
2022-11-18T16:09:19.411Z,100091.00
2022-11-18T16:12:05.527Z,100096.00
2022-11-18T16:14:32.820Z,100095.00
2022-11-18T16:17:00.279Z,100105.00
2022-11-18T16:19:31.513Z,100101.00
2022-11-18T16:22:01.584Z,100115.00
2022-11-18T16:24:29.831Z,100124.00
2022-11-18T16:26:58.150Z,100117.00
2022-11-18T16:29:28.616Z,100116.00
2022-11-18T16:31:58.343Z,100112.00
2022-11-18T16:34:28.271Z,100114.00
2022-11-18T16:37:02.795Z,100124.00
2022-11-18T16:39:30.733Z,100133.00
2022-11-18T16:42:08.415Z,100124.00
2022-11-18T16:44:37.774Z,100126.00
2022-11-18T16:47:12.696Z,100119.00
2022-11-18T16:49:42.094Z,100132.00
2022-11-18T16:52:09.577Z,100132.00
2022-11-18T16:54:42.858Z,100137.00
2022-11-18T16:57:12.698Z,100121.00
2022-11-18T16:59:39.991Z,100135.00
2022-11-18T17:02:07.868Z,100128.00
2022-11-18T17:04:37.349Z,100141.00
2022-11-18T17:07:05.675Z,100140.00
2022-11-18T17:09:33.017Z,100136.00
2022-11-18T17:12:00.473Z,100139.00
2022-11-18T17:14:29.426Z,100140.00
2022-11-18T17:16:56.662Z,100143.00
2022-11-18T17:19:27.536Z,100131.00
2022-11-18T17:21:58.146Z,100147.00
2022-11-18T17:24:26.044Z,100149.00
2022-11-18T17:26:53.327Z,100141.00
2022-11-18T17:29:21.212Z,100154.00
2022-11-18T17:31:49.454Z,100144.00
2022-11-18T17:34:17.108Z,100147.00
2022-11-18T17:36:44.695Z,100149.00
2022-11-18T17:39:16.305Z,100144.00
2022-11-18T17:42:02.392Z,100155.00
2022-11-18T17:44:30.035Z,100152.00
2022-11-18T17:46:57.375Z,100155.00
2022-11-18T17:49:24.636Z,100158.00
2022-11-18T17:51:52.335Z,100160.00
2022-11-18T17:54:21.476Z,100160.00
2022-11-18T17:56:50.170Z,100174.00
2022-11-18T17:59:18.008Z,100166.00
2022-11-18T18:01:46.818Z,100179.00
2022-11-18T18:04:22.677Z,100176.00
2022-11-18T18:06:54.116Z,100183.00
2022-11-18T18:09:28.558Z,100179.00
2022-11-18T18:11:58.782Z,100179.00
2022-11-18T18:14:25.962Z,100175.00
2022-11-18T18:16:53.148Z,100192.00
2022-11-18T18:19:23.552Z,100180.00
2022-11-18T18:21:51.012Z,100163.00
2022-11-18T18:24:21.428Z,100162.00
2022-11-18T18:26:49.473Z,100179.00
2022-11-18T18:29:17.076Z,100181.00
2022-11-18T18:31:46.589Z,100183.00
2022-11-18T18:34:14.430Z,100185.00
2022-11-18T18:36:41.990Z,100173.00
2022-11-18T18:39:09.425Z,100189.00
2022-11-18T18:41:38.341Z,100182.00
2022-11-18T18:44:05.584Z,100194.00
2022-11-18T18:46:36.844Z,100187.00
2022-11-18T18:49:18.429Z,100182.00
2022-11-18T18:51:50.573Z,100171.00
2022-11-18T18:54:20.909Z,100186.00
2022-11-18T18:56:48.429Z,100187.00
2022-11-18T18:59:15.596Z,100183.00
2022-11-18T19:01:42.929Z,100190.00
2022-11-18T19:04:13.716Z,100194.00
2022-11-18T19:06:53.188Z,100194.00
2022-11-18T19:09:26.627Z,100194.00
2022-11-18T19:12:16.158Z,100197.00
2022-11-18T19:14:43.763Z,100197.00
2022-11-18T19:17:12.620Z,100190.00
2022-11-18T19:20:17.513Z,100182.00
2022-11-18T19:22:44.777Z,100196.00
2022-11-18T19:25:14.846Z,100206.00
2022-11-18T19:27:42.327Z,100193.00
2022-11-18T19:30:11.612Z,100205.00
2022-11-18T19:32:44.154Z,100205.00
2022-11-18T19:35:15.120Z,100201.00
2022-11-18T19:37:42.552Z,100207.00
2022-11-18T19:40:12.268Z,100210.00
2022-11-18T19:42:41.006Z,100213.00
2022-11-18T19:45:10.416Z,100209.00
2022-11-18T19:47:41.125Z,100202.00
2022-11-18T19:50:11.373Z,100213.00
2022-11-18T19:52:40.127Z,100213.00
2022-11-18T19:55:11.760Z,100214.00
2022-11-18T19:57:39.076Z,100227.00
2022-11-18T20:00:07.258Z,100223.00
2022-11-18T20:02:34.408Z,100214.00
2022-11-18T20:05:20.208Z,100223.00
2022-11-18T20:07:53.911Z,100222.00
2022-11-18T20:10:22.679Z,100218.00
2022-11-18T20:12:53.937Z,100213.00
2022-11-18T20:15:21.154Z,100218.00
2022-11-18T20:17:48.492Z,100237.00
2022-11-18T20:20:35.923Z,100223.00
2022-11-18T20:23:08.658Z,100242.00
2022-11-18T20:25:40.672Z,100236.00
2022-11-18T20:28:13.186Z,100241.00
2022-11-18T20:30:41.486Z,100229.00
2022-11-18T20:33:08.869Z,100234.00
2022-11-18T20:35:39.200Z,100223.00
2022-11-18T20:38:06.882Z,100245.00
2022-11-18T20:40:36.919Z,100244.00
2022-11-18T20:43:13.619Z,100243.00
2022-11-18T20:45:53.067Z,100244.00
2022-11-18T20:48:23.656Z,100235.00
2022-11-18T20:50:50.872Z,100244.00
2022-11-18T20:53:18.021Z,100252.00
2022-11-18T20:55:50.118Z,100248.00
2022-11-18T20:58:18.656Z,100261.00
2022-11-18T21:00:46.551Z,100255.00
2022-11-18T21:03:17.024Z,100249.00
2022-11-18T21:05:46.039Z,100248.00
2022-11-18T21:08:18.510Z,100259.00
2022-11-18T21:10:48.782Z,100263.00
2022-11-18T21:13:35.825Z,100268.00
2022-11-18T21:16:05.871Z,100255.00
2022-11-18T21:18:33.452Z,100260.00
2022-11-18T21:21:24.750Z,100264.00
2022-11-18T21:23:56.765Z,100268.00
2022-11-18T21:26:30.245Z,100268.00
2022-11-18T21:29:00.664Z,100272.00
2022-11-18T21:31:29.526Z,100282.00
2022-11-18T21:33:57.316Z,100276.00
2022-11-18T21:36:27.558Z,100280.00
2022-11-18T21:38:56.901Z,100281.00
2022-11-18T21:41:24.594Z,100281.00
2022-11-18T21:44:09.764Z,100280.00
2022-11-18T21:46:39.359Z,100290.00
2022-11-18T21:49:07.619Z,100291.00
2022-11-18T21:51:38.533Z,100288.00
2022-11-18T21:54:06.184Z,100296.00
2022-11-18T21:56:33.721Z,100305.00
2022-11-18T21:59:05.262Z,100302.00
2022-11-18T22:01:34.516Z,100308.00
2022-11-18T22:04:04.935Z,100289.00
2022-11-18T22:06:34.688Z,100305.00
2022-11-18T22:09:04.417Z,100307.00
2022-11-18T22:11:31.802Z,100309.00
2022-11-18T22:14:02.586Z,100322.00
2022-11-18T22:16:29.886Z,100322.00
2022-11-18T22:19:06.697Z,100321.00
2022-11-18T22:21:35.458Z,100330.00
2022-11-18T22:24:02.817Z,100335.00
2022-11-18T22:26:30.282Z,100331.00
2022-11-18T22:28:59.035Z,100331.00
2022-11-18T22:31:28.943Z,100320.00
2022-11-18T22:33:57.160Z,100333.00
2022-11-18T22:36:26.684Z,100330.00
2022-11-18T22:38:55.172Z,100335.00
2022-11-18T22:41:44.367Z,100325.00
2022-11-18T22:44:14.934Z,100343.00
2022-11-18T22:46:45.022Z,100345.00
2022-11-18T22:49:15.845Z,100342.00
2022-11-18T22:51:43.023Z,100343.00
2022-11-18T22:54:37.049Z,100345.00
2022-11-18T22:56:57.909Z,100345.00
2022-11-18T22:59:25.524Z,100344.00
2022-11-18T23:01:53.522Z,100336.00
2022-11-18T23:04:21.435Z,100353.00
2022-11-18T23:06:50.057Z,100359.00
2022-11-18T23:09:17.745Z,100359.00
2022-11-18T23:12:03.756Z,100351.00
2022-11-18T23:14:31.653Z,100363.00
2022-11-18T23:17:02.570Z,100363.00
2022-11-18T23:19:29.892Z,100362.00
2022-11-18T23:21:59.314Z,100371.00
2022-11-18T23:24:26.370Z,100377.00
2022-11-18T23:26:53.857Z,100371.00
2022-11-18T23:29:21.489Z,100373.00
2022-11-18T23:31:48.897Z,100383.00
2022-11-18T23:34:16.875Z,100377.00
2022-11-18T23:36:44.858Z,100392.00
2022-11-18T23:39:13.111Z,100392.00
2022-11-18T23:41:41.020Z,100397.00
2022-11-18T23:44:08.794Z,100397.00
2022-11-18T23:46:36.170Z,100403.00
2022-11-18T23:49:08.350Z,100408.00
2022-11-18T23:51:38.256Z,100410.00
2022-11-18T23:54:05.665Z,100407.00
2022-11-18T23:56:37.713Z,100412.00
2022-11-18T23:59:05.774Z,100412.00
